sensor_id;sensor_type;location;lat;lon;timestamp;temperature;humidity
25918;DHT22;13899;51.174;4.456;2023-06-10T00:01:26;25.70;79.40
25918;DHT22;13899;51.174;4.456;2023-06-10T00:03:53;25.60;80.40
25918;DHT22;13899;51.174;4.456;2023-06-10T00:06:18;25.50;80.60
25918;DHT22;13899;51.174;4.456;2023-06-10T00:08:44;25.50;81.30
25918;DHT22;13899;51.174;4.456;2023-06-10T00:11:09;25.40;82.10
25918;DHT22;13899;51.174;4.456;2023-06-10T00:13:35;25.40;81.80
25918;DHT22;13899;51.174;4.456;2023-06-10T00:16:01;25.30;82.70
25918;DHT22;13899;51.174;4.456;2023-06-10T00:18:26;25.20;83.50
25918;DHT22;13899;51.174;4.456;2023-06-10T00:20:52;25.20;84.00
25918;DHT22;13899;51.174;4.456;2023-06-10T00:23:20;25.20;85.10
25918;DHT22;13899;51.174;4.456;2023-06-10T00:25:46;25.10;85.50
25918;DHT22;13899;51.174;4.456;2023-06-10T00:28:12;25.10;86.00
25918;DHT22;13899;51.174;4.456;2023-06-10T00:30:38;25.10;86.30
25918;DHT22;13899;51.174;4.456;2023-06-10T00:33:04;25.10;86.80
25918;DHT22;13899;51.174;4.456;2023-06-10T00:35:29;25.00;86.80
25918;DHT22;13899;51.174;4.456;2023-06-10T00:37:55;24.90;88.00
25918;DHT22;13899;51.174;4.456;2023-06-10T00:40:20;25.00;89.20
25918;DHT22;13899;51.174;4.456;2023-06-10T00:42:46;24.90;89.90
25918;DHT22;13899;51.174;4.456;2023-06-10T00:45:11;24.90;90.10
25918;DHT22;13899;51.174;4.456;2023-06-10T00:47:37;24.60;91.40
25918;DHT22;13899;51.174;4.456;2023-06-10T00:50:03;24.50;92.10
25918;DHT22;13899;51.174;4.456;2023-06-10T00:52:29;24.50;92.10
25918;DHT22;13899;51.174;4.456;2023-06-10T00:54:58;24.60;92.40
25918;DHT22;13899;51.174;4.456;2023-06-10T00:57:24;24.80;92.00
25918;DHT22;13899;51.174;4.456;2023-06-10T00:59:50;24.70;92.30
25918;DHT22;13899;51.174;4.456;2023-06-10T01:02:16;24.80;92.40
25918;DHT22;13899;51.174;4.456;2023-06-10T01:04:41;24.80;92.60
25918;DHT22;13899;51.174;4.456;2023-06-10T01:09:40;24.70;93.10
25918;DHT22;13899;51.174;4.456;2023-06-10T01:12:22;24.70;93.40
25918;DHT22;13899;51.174;4.456;2023-06-10T01:14:51;24.70;94.30
25918;DHT22;13899;51.174;4.456;2023-06-10T01:17:17;24.70;94.40
25918;DHT22;13899;51.174;4.456;2023-06-10T01:19:43;24.70;94.80
25918;DHT22;13899;51.174;4.456;2023-06-10T01:22:09;24.60;95.70
25918;DHT22;13899;51.174;4.456;2023-06-10T01:24:36;24.60;96.20
25918;DHT22;13899;51.174;4.456;2023-06-10T01:27:01;24.60;96.80
25918;DHT22;13899;51.174;4.456;2023-06-10T01:29:31;24.50;97.10
25918;DHT22;13899;51.174;4.456;2023-06-10T01:32:01;24.40;97.80
25918;DHT22;13899;51.174;4.456;2023-06-10T01:34:29;24.40;98.70
25918;DHT22;13899;51.174;4.456;2023-06-10T01:36:56;24.30;99.30
25918;DHT22;13899;51.174;4.456;2023-06-10T01:39:22;24.30;99.70
25918;DHT22;13899;51.174;4.456;2023-06-10T01:41:49;24.20;99.90
25918;DHT22;13899;51.174;4.456;2023-06-10T01:44:21;24.20;99.90
25918;DHT22;13899;51.174;4.456;2023-06-10T01:46:47;24.10;99.90
25918;DHT22;13899;51.174;4.456;2023-06-10T01:49:12;24.10;99.90
25918;DHT22;13899;51.174;4.456;2023-06-10T01:51:38;24.10;99.90
25918;DHT22;13899;51.174;4.456;2023-06-10T01:54:04;24.10;99.90
25918;DHT22;13899;51.174;4.456;2023-06-10T01:56:30;24.10;99.90
25918;DHT22;13899;51.174;4.456;2023-06-10T01:58:56;24.00;99.90
25918;DHT22;13899;51.174;4.456;2023-06-10T02:01:24;24.00;99.90
25918;DHT22;13899;51.174;4.456;2023-06-10T02:03:50;24.00;99.90
25918;DHT22;13899;51.174;4.456;2023-06-10T02:06:15;24.00;99.90
25918;DHT22;13899;51.174;4.456;2023-06-10T02:08:41;23.90;99.90
25918;DHT22;13899;51.174;4.456;2023-06-10T02:11:07;23.80;99.90
25918;DHT22;13899;51.174;4.456;2023-06-10T02:13:33;23.80;99.90
25918;DHT22;13899;51.174;4.456;2023-06-10T02:15:58;23.80;99.90
25918;DHT22;13899;51.174;4.456;2023-06-10T02:18:25;23.70;99.90
25918;DHT22;13899;51.174;4.456;2023-06-10T02:20:52;23.70;99.90
25918;DHT22;13899;51.174;4.456;2023-06-10T02:23:17;23.60;99.90
25918;DHT22;13899;51.174;4.456;2023-06-10T02:25:43;23.60;99.90
25918;DHT22;13899;51.174;4.456;2023-06-10T02:28:08;23.70;99.90
25918;DHT22;13899;51.174;4.456;2023-06-10T02:30:34;23.60;99.90
25918;DHT22;13899;51.174;4.456;2023-06-10T02:32:59;23.60;99.90
25918;DHT22;13899;51.174;4.456;2023-06-10T02:35:26;23.50;99.90
25918;DHT22;13899;51.174;4.456;2023-06-10T02:37:51;23.50;99.90
25918;DHT22;13899;51.174;4.456;2023-06-10T02:40:17;23.60;99.90
25918;DHT22;13899;51.174;4.456;2023-06-10T02:42:42;23.50;99.90
25918;DHT22;13899;51.174;4.456;2023-06-10T02:45:08;23.50;99.90
25918;DHT22;13899;51.174;4.456;2023-06-10T02:47:34;23.40;99.90
25918;DHT22;13899;51.174;4.456;2023-06-10T02:49:59;23.50;99.90
25918;DHT22;13899;51.174;4.456;2023-06-10T02:52:25;23.40;99.90
25918;DHT22;13899;51.174;4.456;2023-06-10T02:54:50;23.40;99.90
25918;DHT22;13899;51.174;4.456;2023-06-10T02:57:16;23.30;99.90
25918;DHT22;13899;51.174;4.456;2023-06-10T02:59:41;23.20;99.90
25918;DHT22;13899;51.174;4.456;2023-06-10T03:02:07;23.20;99.90
25918;DHT22;13899;51.174;4.456;2023-06-10T03:04:32;23.20;99.90
25918;DHT22;13899;51.174;4.456;2023-06-10T03:06:58;23.30;99.90
25918;DHT22;13899;51.174;4.456;2023-06-10T03:09:28;23.20;99.90
25918;DHT22;13899;51.174;4.456;2023-06-10T03:11:54;23.20;99.90
25918;DHT22;13899;51.174;4.456;2023-06-10T03:14:20;23.10;99.90
25918;DHT22;13899;51.174;4.456;2023-06-10T03:16:45;23.10;99.90
25918;DHT22;13899;51.174;4.456;2023-06-10T03:19:10;23.10;99.90
25918;DHT22;13899;51.174;4.456;2023-06-10T03:21:36;23.00;99.90
25918;DHT22;13899;51.174;4.456;2023-06-10T03:24:03;22.80;99.90
25918;DHT22;13899;51.174;4.456;2023-06-10T03:26:28;22.80;99.90
25918;DHT22;13899;51.174;4.456;2023-06-10T03:28:54;22.90;99.90
25918;DHT22;13899;51.174;4.456;2023-06-10T03:31:19;23.00;99.90
25918;DHT22;13899;51.174;4.456;2023-06-10T03:33:45;22.90;99.90
25918;DHT22;13899;51.174;4.456;2023-06-10T03:36:10;23.00;99.90
25918;DHT22;13899;51.174;4.456;2023-06-10T03:38:36;23.00;99.90
25918;DHT22;13899;51.174;4.456;2023-06-10T03:41:02;23.00;99.90
25918;DHT22;13899;51.174;4.456;2023-06-10T03:43:27;22.90;99.90
25918;DHT22;13899;51.174;4.456;2023-06-10T03:45:53;22.90;99.90
25918;DHT22;13899;51.174;4.456;2023-06-10T03:48:18;23.00;99.90
25918;DHT22;13899;51.174;4.456;2023-06-10T03:50:44;23.00;99.90
25918;DHT22;13899;51.174;4.456;2023-06-10T03:53:09;22.90;99.90
25918;DHT22;13899;51.174;4.456;2023-06-10T03:55:35;22.90;99.90
25918;DHT22;13899;51.174;4.456;2023-06-10T03:58:01;22.90;99.90
25918;DHT22;13899;51.174;4.456;2023-06-10T04:00:27;22.90;99.90
25918;DHT22;13899;51.174;4.456;2023-06-10T04:02:52;22.80;99.90
25918;DHT22;13899;51.174;4.456;2023-06-10T04:05:18;22.70;99.90
25918;DHT22;13899;51.174;4.456;2023-06-10T04:07:45;22.80;99.90
25918;DHT22;13899;51.174;4.456;2023-06-10T04:10:11;22.90;99.90
25918;DHT22;13899;51.174;4.456;2023-06-10T04:12:37;23.00;99.90
25918;DHT22;13899;51.174;4.456;2023-06-10T04:15:03;22.80;99.90
25918;DHT22;13899;51.174;4.456;2023-06-10T04:17:29;22.80;99.90
25918;DHT22;13899;51.174;4.456;2023-06-10T04:19:54;22.90;99.90
25918;DHT22;13899;51.174;4.456;2023-06-10T04:22:21;22.80;99.90
25918;DHT22;13899;51.174;4.456;2023-06-10T04:24:46;23.00;99.90
25918;DHT22;13899;51.174;4.456;2023-06-10T04:27:12;22.90;99.90
25918;DHT22;13899;51.174;4.456;2023-06-10T04:29:37;22.90;99.90
25918;DHT22;13899;51.174;4.456;2023-06-10T04:32:03;22.90;99.90
25918;DHT22;13899;51.174;4.456;2023-06-10T04:34:30;23.00;99.90
25918;DHT22;13899;51.174;4.456;2023-06-10T04:36:56;23.10;99.90
25918;DHT22;13899;51.174;4.456;2023-06-10T04:39:21;23.20;99.90
25918;DHT22;13899;51.174;4.456;2023-06-10T04:41:47;23.30;99.90
25918;DHT22;13899;51.174;4.456;2023-06-10T04:44:13;23.20;99.90
25918;DHT22;13899;51.174;4.456;2023-06-10T04:46:39;23.40;99.90
25918;DHT22;13899;51.174;4.456;2023-06-10T04:49:04;23.30;99.90
25918;DHT22;13899;51.174;4.456;2023-06-10T04:51:30;23.30;99.90
25918;DHT22;13899;51.174;4.456;2023-06-10T04:53:57;23.30;99.90
25918;DHT22;13899;51.174;4.456;2023-06-10T04:56:22;23.30;99.90
25918;DHT22;13899;51.174;4.456;2023-06-10T04:58:48;23.40;99.90
25918;DHT22;13899;51.174;4.456;2023-06-10T05:01:13;23.40;99.90
25918;DHT22;13899;51.174;4.456;2023-06-10T05:03:39;23.40;99.90
25918;DHT22;13899;51.174;4.456;2023-06-10T05:06:04;23.40;99.90
25918;DHT22;13899;51.174;4.456;2023-06-10T05:08:30;23.40;99.90
25918;DHT22;13899;51.174;4.456;2023-06-10T05:10:55;23.30;99.90
25918;DHT22;13899;51.174;4.456;2023-06-10T05:13:21;23.10;99.90
25918;DHT22;13899;51.174;4.456;2023-06-10T05:15:46;23.00;99.90
25918;DHT22;13899;51.174;4.456;2023-06-10T05:18:12;23.10;99.90
25918;DHT22;13899;51.174;4.456;2023-06-10T05:20:38;23.00;99.90
25918;DHT22;13899;51.174;4.456;2023-06-10T05:23:03;23.30;99.90
25918;DHT22;13899;51.174;4.456;2023-06-10T05:25:32;23.30;99.90
25918;DHT22;13899;51.174;4.456;2023-06-10T05:27:58;23.40;99.90
25918;DHT22;13899;51.174;4.456;2023-06-10T05:30:23;23.30;99.90
25918;DHT22;13899;51.174;4.456;2023-06-10T05:32:49;23.20;99.90
25918;DHT22;13899;51.174;4.456;2023-06-10T05:35:16;23.30;99.90
25918;DHT22;13899;51.174;4.456;2023-06-10T05:37:42;23.20;99.90
25918;DHT22;13899;51.174;4.456;2023-06-10T05:40:08;23.30;99.90
25918;DHT22;13899;51.174;4.456;2023-06-10T05:42:34;23.40;99.90
25918;DHT22;13899;51.174;4.456;2023-06-10T05:44:59;23.60;99.90
25918;DHT22;13899;51.174;4.456;2023-06-10T05:47:25;23.80;99.90
25918;DHT22;13899;51.174;4.456;2023-06-10T05:49:50;24.00;99.90
25918;DHT22;13899;51.174;4.456;2023-06-10T05:52:17;24.00;99.90
25918;DHT22;13899;51.174;4.456;2023-06-10T05:54:42;24.00;99.90
25918;DHT22;13899;51.174;4.456;2023-06-10T05:57:08;24.10;99.90
25918;DHT22;13899;51.174;4.456;2023-06-10T05:59:33;24.30;99.90
25918;DHT22;13899;51.174;4.456;2023-06-10T06:01:59;24.50;99.90
25918;DHT22;13899;51.174;4.456;2023-06-10T06:04:25;24.20;99.90
25918;DHT22;13899;51.174;4.456;2023-06-10T06:06:50;24.10;99.90
25918;DHT22;13899;51.174;4.456;2023-06-10T06:09:16;24.20;99.90
25918;DHT22;13899;51.174;4.456;2023-06-10T06:11:42;24.10;99.90
25918;DHT22;13899;51.174;4.456;2023-06-10T06:14:07;23.90;99.90
25918;DHT22;13899;51.174;4.456;2023-06-10T06:16:33;24.20;99.90
25918;DHT22;13899;51.174;4.456;2023-06-10T06:18:58;24.30;99.90
25918;DHT22;13899;51.174;4.456;2023-06-10T06:21:24;24.70;99.90
25918;DHT22;13899;51.174;4.456;2023-06-10T06:23:50;24.60;99.90
25918;DHT22;13899;51.174;4.456;2023-06-10T06:26:17;24.70;99.90
25918;DHT22;13899;51.174;4.456;2023-06-10T06:28:43;24.70;99.90
25918;DHT22;13899;51.174;4.456;2023-06-10T06:31:08;24.70;99.90
25918;DHT22;13899;51.174;4.456;2023-06-10T06:33:34;25.00;99.90
25918;DHT22;13899;51.174;4.456;2023-06-10T06:35:59;24.80;99.90
25918;DHT22;13899;51.174;4.456;2023-06-10T06:38:26;24.70;99.90
25918;DHT22;13899;51.174;4.456;2023-06-10T06:40:51;24.70;99.90
25918;DHT22;13899;51.174;4.456;2023-06-10T06:43:17;24.80;99.90
25918;DHT22;13899;51.174;4.456;2023-06-10T06:45:44;24.80;99.90
25918;DHT22;13899;51.174;4.456;2023-06-10T06:48:10;25.30;99.90
25918;DHT22;13899;51.174;4.456;2023-06-10T06:50:36;25.40;99.90
25918;DHT22;13899;51.174;4.456;2023-06-10T06:53:01;25.40;99.90
25918;DHT22;13899;51.174;4.456;2023-06-10T06:55:27;25.80;99.90
25918;DHT22;13899;51.174;4.456;2023-06-10T06:57:52;25.80;99.90
25918;DHT22;13899;51.174;4.456;2023-06-10T07:00:18;25.70;99.90
25918;DHT22;13899;51.174;4.456;2023-06-10T07:02:43;25.60;99.90
25918;DHT22;13899;51.174;4.456;2023-06-10T07:05:09;25.80;99.90
25918;DHT22;13899;51.174;4.456;2023-06-10T07:07:34;25.80;99.90
25918;DHT22;13899;51.174;4.456;2023-06-10T07:10:00;26.00;99.90
25918;DHT22;13899;51.174;4.456;2023-06-10T07:12:25;26.00;99.90
25918;DHT22;13899;51.174;4.456;2023-06-10T07:14:51;26.20;99.90
25918;DHT22;13899;51.174;4.456;2023-06-10T07:17:17;26.30;99.90
25918;DHT22;13899;51.174;4.456;2023-06-10T07:19:43;26.40;99.90
25918;DHT22;13899;51.174;4.456;2023-06-10T07:22:08;26.40;99.90
25918;DHT22;13899;51.174;4.456;2023-06-10T07:24:34;26.30;99.90
25918;DHT22;13899;51.174;4.456;2023-06-10T07:26:59;26.30;99.90
25918;DHT22;13899;51.174;4.456;2023-06-10T07:29:25;26.30;99.90
25918;DHT22;13899;51.174;4.456;2023-06-10T07:31:50;26.10;99.90
25918;DHT22;13899;51.174;4.456;2023-06-10T07:34:16;26.30;99.90
25918;DHT22;13899;51.174;4.456;2023-06-10T07:36:41;26.50;99.90
25918;DHT22;13899;51.174;4.456;2023-06-10T07:39:07;26.80;99.90
25918;DHT22;13899;51.174;4.456;2023-06-10T07:41:33;27.20;99.90
25918;DHT22;13899;51.174;4.456;2023-06-10T07:43:58;27.00;99.90
25918;DHT22;13899;51.174;4.456;2023-06-10T07:46:24;27.20;99.90
25918;DHT22;13899;51.174;4.456;2023-06-10T07:48:49;27.20;99.90
25918;DHT22;13899;51.174;4.456;2023-06-10T07:51:18;27.20;99.90
25918;DHT22;13899;51.174;4.456;2023-06-10T07:53:44;27.20;99.90
25918;DHT22;13899;51.174;4.456;2023-06-10T07:56:09;27.20;99.90
25918;DHT22;13899;51.174;4.456;2023-06-10T07:58:35;27.40;99.90
25918;DHT22;13899;51.174;4.456;2023-06-10T08:01:00;27.60;99.90
25918;DHT22;13899;51.174;4.456;2023-06-10T08:03:26;28.10;99.90
25918;DHT22;13899;51.174;4.456;2023-06-10T08:05:51;27.80;99.90
25918;DHT22;13899;51.174;4.456;2023-06-10T08:08:16;27.80;99.90
25918;DHT22;13899;51.174;4.456;2023-06-10T08:10:42;27.90;99.90
25918;DHT22;13899;51.174;4.456;2023-06-10T08:13:08;28.10;99.90
25918;DHT22;13899;51.174;4.456;2023-06-10T08:15:33;28.50;99.90
25918;DHT22;13899;51.174;4.456;2023-06-10T08:17:59;28.70;99.90
25918;DHT22;13899;51.174;4.456;2023-06-10T08:20:25;28.80;99.90
25918;DHT22;13899;51.174;4.456;2023-06-10T08:22:51;28.50;99.90
25918;DHT22;13899;51.174;4.456;2023-06-10T08:25:17;28.40;99.90
25918;DHT22;13899;51.174;4.456;2023-06-10T08:27:43;28.40;99.90
25918;DHT22;13899;51.174;4.456;2023-06-10T08:30:08;28.50;99.90
25918;DHT22;13899;51.174;4.456;2023-06-10T08:32:36;28.60;99.90
25918;DHT22;13899;51.174;4.456;2023-06-10T08:35:01;28.50;99.90
25918;DHT22;13899;51.174;4.456;2023-06-10T08:37:27;28.50;99.90
25918;DHT22;13899;51.174;4.456;2023-06-10T08:39:52;28.40;99.90
25918;DHT22;13899;51.174;4.456;2023-06-10T08:44:46;28.90;99.90
25918;DHT22;13899;51.174;4.456;2023-06-10T08:47:13;28.70;99.90
25918;DHT22;13899;51.174;4.456;2023-06-10T08:49:44;28.90;99.90
25918;DHT22;13899;51.174;4.456;2023-06-10T08:52:17;29.40;99.90
25918;DHT22;13899;51.174;4.456;2023-06-10T08:54:52;29.60;97.60
25918;DHT22;13899;51.174;4.456;2023-06-10T08:57:18;29.30;98.00
25918;DHT22;13899;51.174;4.456;2023-06-10T08:59:46;29.60;96.90
25918;DHT22;13899;51.174;4.456;2023-06-10T09:02:11;29.60;97.30
25918;DHT22;13899;51.174;4.456;2023-06-10T09:04:38;29.90;96.80
25918;DHT22;13899;51.174;4.456;2023-06-10T09:07:04;29.90;95.90
25918;DHT22;13899;51.174;4.456;2023-06-10T09:09:30;30.10;95.10
25918;DHT22;13899;51.174;4.456;2023-06-10T09:11:56;30.10;95.70
25918;DHT22;13899;51.174;4.456;2023-06-10T09:14:22;29.90;95.00
25918;DHT22;13899;51.174;4.456;2023-06-10T09:16:48;30.30;95.80
25918;DHT22;13899;51.174;4.456;2023-06-10T09:19:15;30.50;94.60
25918;DHT22;13899;51.174;4.456;2023-06-10T09:21:41;30.50;95.10
25918;DHT22;13899;51.174;4.456;2023-06-10T09:24:06;30.40;94.80
25918;DHT22;13899;51.174;4.456;2023-06-10T09:26:32;30.10;94.70
25918;DHT22;13899;51.174;4.456;2023-06-10T09:29:02;30.20;94.40
25918;DHT22;13899;51.174;4.456;2023-06-10T09:31:29;30.40;93.60
25918;DHT22;13899;51.174;4.456;2023-06-10T09:33:55;30.70;92.70
25918;DHT22;13899;51.174;4.456;2023-06-10T09:36:29;30.40;93.60
25918;DHT22;13899;51.174;4.456;2023-06-10T09:38:56;30.20;93.40
25918;DHT22;13899;51.174;4.456;2023-06-10T09:41:21;30.40;90.70
25918;DHT22;13899;51.174;4.456;2023-06-10T09:43:47;30.70;90.50
25918;DHT22;13899;51.174;4.456;2023-06-10T09:46:14;30.40;90.40
25918;DHT22;13899;51.174;4.456;2023-06-10T09:48:44;31.00;91.30
25918;DHT22;13899;51.174;4.456;2023-06-10T09:51:10;30.90;90.80
25918;DHT22;13899;51.174;4.456;2023-06-10T09:53:36;30.90;90.10
25918;DHT22;13899;51.174;4.456;2023-06-10T09:56:01;31.50;88.30
25918;DHT22;13899;51.174;4.456;2023-06-10T09:58:34;32.40;83.50
25918;DHT22;13899;51.174;4.456;2023-06-10T10:01:00;33.20;80.50
25918;DHT22;13899;51.174;4.456;2023-06-10T10:03:29;33.70;78.90
25918;DHT22;13899;51.174;4.456;2023-06-10T10:05:58;34.50;73.60
25918;DHT22;13899;51.174;4.456;2023-06-10T10:08:25;35.50;70.40
25918;DHT22;13899;51.174;4.456;2023-06-10T10:10:50;36.60;67.20
25918;DHT22;13899;51.174;4.456;2023-06-10T10:13:16;36.90;61.40
25918;DHT22;13899;51.174;4.456;2023-06-10T10:15:42;37.10;57.40
25918;DHT22;13899;51.174;4.456;2023-06-10T10:18:10;37.90;55.00
25918;DHT22;13899;51.174;4.456;2023-06-10T10:20:37;38.00;53.20
25918;DHT22;13899;51.174;4.456;2023-06-10T10:23:07;38.60;53.10
25918;DHT22;13899;51.174;4.456;2023-06-10T10:25:38;39.10;51.10
25918;DHT22;13899;51.174;4.456;2023-06-10T10:28:09;39.30;48.10
25918;DHT22;13899;51.174;4.456;2023-06-10T10:30:46;38.60;47.60
25918;DHT22;13899;51.174;4.456;2023-06-10T10:33:12;37.50;48.90
25918;DHT22;13899;51.174;4.456;2023-06-10T10:35:38;37.40;48.90
25918;DHT22;13899;51.174;4.456;2023-06-10T10:38:04;37.80;48.10
25918;DHT22;13899;51.174;4.456;2023-06-10T10:40:30;38.20;45.70
25918;DHT22;13899;51.174;4.456;2023-06-10T10:42:57;37.70;46.70
25918;DHT22;13899;51.174;4.456;2023-06-10T10:45:24;37.80;46.80
25918;DHT22;13899;51.174;4.456;2023-06-10T10:47:53;37.60;46.60
25918;DHT22;13899;51.174;4.456;2023-06-10T10:50:19;37.40;45.00
25918;DHT22;13899;51.174;4.456;2023-06-10T10:53:01;37.10;46.40
25918;DHT22;13899;51.174;4.456;2023-06-10T10:55:27;37.10;44.90
25918;DHT22;13899;51.174;4.456;2023-06-10T11:00:27;38.60;45.90
25918;DHT22;13899;51.174;4.456;2023-06-10T11:02:54;39.00;44.40
25918;DHT22;13899;51.174;4.456;2023-06-10T11:05:30;39.50;44.60
25918;DHT22;13899;51.174;4.456;2023-06-10T11:07:56;39.80;44.30
25918;DHT22;13899;51.174;4.456;2023-06-10T11:10:28;39.50;43.50
25918;DHT22;13899;51.174;4.456;2023-06-10T11:12:54;40.10;43.20
25918;DHT22;13899;51.174;4.456;2023-06-10T11:15:24;40.90;42.40
25918;DHT22;13899;51.174;4.456;2023-06-10T11:25:50;41.40;41.00
25918;DHT22;13899;51.174;4.456;2023-06-10T11:28:19;40.40;41.50
25918;DHT22;13899;51.174;4.456;2023-06-10T11:30:44;40.50;40.90
25918;DHT22;13899;51.174;4.456;2023-06-10T11:33:14;40.30;40.30
25918;DHT22;13899;51.174;4.456;2023-06-10T11:35:40;40.70;39.90
25918;DHT22;13899;51.174;4.456;2023-06-10T11:38:05;41.50;39.90
25918;DHT22;13899;51.174;4.456;2023-06-10T11:40:31;41.20;38.80
25918;DHT22;13899;51.174;4.456;2023-06-10T11:42:57;41.30;39.30
25918;DHT22;13899;51.174;4.456;2023-06-10T11:45:23;41.90;38.40
25918;DHT22;13899;51.174;4.456;2023-06-10T11:47:57;41.60;39.30
25918;DHT22;13899;51.174;4.456;2023-06-10T11:50:32;41.90;40.00
25918;DHT22;13899;51.174;4.456;2023-06-10T11:52:58;41.90;38.90
25918;DHT22;13899;51.174;4.456;2023-06-10T11:55:25;42.30;39.10
25918;DHT22;13899;51.174;4.456;2023-06-10T11:57:51;42.00;39.30
25918;DHT22;13899;51.174;4.456;2023-06-10T12:00:23;41.80;39.30
25918;DHT22;13899;51.174;4.456;2023-06-10T12:02:56;42.30;39.00
25918;DHT22;13899;51.174;4.456;2023-06-10T12:05:24;42.00;38.80
25918;DHT22;13899;51.174;4.456;2023-06-10T12:07:49;42.40;38.10
25918;DHT22;13899;51.174;4.456;2023-06-10T12:10:30;41.90;38.80
25918;DHT22;13899;51.174;4.456;2023-06-10T12:12:56;41.30;38.40
25918;DHT22;13899;51.174;4.456;2023-06-10T12:15:24;41.30;37.80
25918;DHT22;13899;51.174;4.456;2023-06-10T12:17:50;41.80;37.50
25918;DHT22;13899;51.174;4.456;2023-06-10T12:20:26;42.00;37.20
25918;DHT22;13899;51.174;4.456;2023-06-10T12:22:53;42.90;37.80
25918;DHT22;13899;51.174;4.456;2023-06-10T12:25:24;43.00;36.60
25918;DHT22;13899;51.174;4.456;2023-06-10T12:27:50;42.60;36.20
25918;DHT22;13899;51.174;4.456;2023-06-10T12:30:20;41.70;36.00
25918;DHT22;13899;51.174;4.456;2023-06-10T12:32:46;41.70;36.60
25918;DHT22;13899;51.174;4.456;2023-06-10T12:35:18;40.70;36.90
25918;DHT22;13899;51.174;4.456;2023-06-10T12:37:57;40.80;37.30
25918;DHT22;13899;51.174;4.456;2023-06-10T12:40:30;41.60;37.40
25918;DHT22;13899;51.174;4.456;2023-06-10T12:42:56;42.10;37.00
25918;DHT22;13899;51.174;4.456;2023-06-10T12:45:32;42.40;36.70
25918;DHT22;13899;51.174;4.456;2023-06-10T12:50:46;40.70;37.10
25918;DHT22;13899;51.174;4.456;2023-06-10T12:53:12;39.90;37.30
25918;DHT22;13899;51.174;4.456;2023-06-10T12:55:46;40.70;38.00
25918;DHT22;13899;51.174;4.456;2023-06-10T12:58:11;41.20;37.10
25918;DHT22;13899;51.174;4.456;2023-06-10T13:00:37;41.00;37.60
25918;DHT22;13899;51.174;4.456;2023-06-10T13:03:03;41.70;36.70
25918;DHT22;13899;51.174;4.456;2023-06-10T13:05:31;42.40;35.10
25918;DHT22;13899;51.174;4.456;2023-06-10T13:07:57;42.50;36.20
25918;DHT22;13899;51.174;4.456;2023-06-10T13:10:26;40.80;36.00
25918;DHT22;13899;51.174;4.456;2023-06-10T13:12:56;40.80;35.00
25918;DHT22;13899;51.174;4.456;2023-06-10T13:15:22;40.60;35.70
25918;DHT22;13899;51.174;4.456;2023-06-10T13:17:48;41.70;36.30
25918;DHT22;13899;51.174;4.456;2023-06-10T13:20:15;42.40;35.40
25918;DHT22;13899;51.174;4.456;2023-06-10T13:22:43;40.80;35.30
25918;DHT22;13899;51.174;4.456;2023-06-10T13:25:09;40.60;35.70
25918;DHT22;13899;51.174;4.456;2023-06-10T13:27:39;41.70;36.10
25918;DHT22;13899;51.174;4.456;2023-06-10T13:30:05;42.80;36.30
25918;DHT22;13899;51.174;4.456;2023-06-10T13:32:31;43.10;34.70
25918;DHT22;13899;51.174;4.456;2023-06-10T13:34:57;43.30;35.20
25918;DHT22;13899;51.174;4.456;2023-06-10T13:37:22;43.70;34.90
25918;DHT22;13899;51.174;4.456;2023-06-10T13:39:48;43.80;34.40
25918;DHT22;13899;51.174;4.456;2023-06-10T13:42:18;44.80;34.00
25918;DHT22;13899;51.174;4.456;2023-06-10T13:44:43;44.30;33.60
25918;DHT22;13899;51.174;4.456;2023-06-10T13:47:09;45.10;34.90
25918;DHT22;13899;51.174;4.456;2023-06-10T13:49:35;45.60;33.40
25918;DHT22;13899;51.174;4.456;2023-06-10T13:52:01;44.70;33.70
25918;DHT22;13899;51.174;4.456;2023-06-10T13:54:27;44.40;33.80
25918;DHT22;13899;51.174;4.456;2023-06-10T13:56:52;44.60;33.10
25918;DHT22;13899;51.174;4.456;2023-06-10T13:59:18;45.20;33.50
25918;DHT22;13899;51.174;4.456;2023-06-10T14:01:44;45.80;33.10
25918;DHT22;13899;51.174;4.456;2023-06-10T14:04:11;45.60;32.70
25918;DHT22;13899;51.174;4.456;2023-06-10T14:06:36;45.30;33.10
25918;DHT22;13899;51.174;4.456;2023-06-10T14:09:02;43.60;33.20
25918;DHT22;13899;51.174;4.456;2023-06-10T14:11:28;44.20;34.00
25918;DHT22;13899;51.174;4.456;2023-06-10T14:13:53;45.40;33.30
25918;DHT22;13899;51.174;4.456;2023-06-10T14:16:21;46.30;32.50
25918;DHT22;13899;51.174;4.456;2023-06-10T14:18:47;46.70;31.70
25918;DHT22;13899;51.174;4.456;2023-06-10T14:21:12;46.80;31.60
25918;DHT22;13899;51.174;4.456;2023-06-10T14:23:38;45.80;31.60
25918;DHT22;13899;51.174;4.456;2023-06-10T14:26:03;45.70;32.20
25918;DHT22;13899;51.174;4.456;2023-06-10T14:28:30;45.50;32.50
25918;DHT22;13899;51.174;4.456;2023-06-10T14:30:56;43.10;33.30
25918;DHT22;13899;51.174;4.456;2023-06-10T14:33:23;43.20;34.00
25918;DHT22;13899;51.174;4.456;2023-06-10T14:35:48;44.00;33.70
25918;DHT22;13899;51.174;4.456;2023-06-10T14:38:14;45.10;32.60
25918;DHT22;13899;51.174;4.456;2023-06-10T14:40:39;45.30;32.10
25918;DHT22;13899;51.174;4.456;2023-06-10T14:43:05;45.40;32.30
25918;DHT22;13899;51.174;4.456;2023-06-10T14:45:38;46.10;31.30
25918;DHT22;13899;51.174;4.456;2023-06-10T14:48:04;46.80;32.20
25918;DHT22;13899;51.174;4.456;2023-06-10T14:50:30;46.20;31.60
25918;DHT22;13899;51.174;4.456;2023-06-10T14:52:55;45.00;32.00
25918;DHT22;13899;51.174;4.456;2023-06-10T14:55:21;43.60;32.70
25918;DHT22;13899;51.174;4.456;2023-06-10T14:57:48;43.60;33.50
25918;DHT22;13899;51.174;4.456;2023-06-10T15:00:13;44.00;32.80
25918;DHT22;13899;51.174;4.456;2023-06-10T15:02:40;42.80;32.90
25918;DHT22;13899;51.174;4.456;2023-06-10T15:05:06;41.70;33.30
25918;DHT22;13899;51.174;4.456;2023-06-10T15:07:31;41.40;33.20
25918;DHT22;13899;51.174;4.456;2023-06-10T15:09:57;41.20;33.40
25918;DHT22;13899;51.174;4.456;2023-06-10T15:12:23;40.80;34.20
25918;DHT22;13899;51.174;4.456;2023-06-10T15:14:48;40.10;33.80
25918;DHT22;13899;51.174;4.456;2023-06-10T15:17:14;40.20;34.30
25918;DHT22;13899;51.174;4.456;2023-06-10T15:19:39;39.60;35.70
25918;DHT22;13899;51.174;4.456;2023-06-10T15:22:05;38.50;35.60
25918;DHT22;13899;51.174;4.456;2023-06-10T15:24:30;38.60;36.00
25918;DHT22;13899;51.174;4.456;2023-06-10T15:26:56;38.60;36.10
25918;DHT22;13899;51.174;4.456;2023-06-10T15:29:21;37.80;36.70
25918;DHT22;13899;51.174;4.456;2023-06-10T15:31:47;37.90;38.30
25918;DHT22;13899;51.174;4.456;2023-06-10T15:34:12;37.80;37.70
25918;DHT22;13899;51.174;4.456;2023-06-10T15:36:38;37.10;35.90
25918;DHT22;13899;51.174;4.456;2023-06-10T15:39:04;36.90;35.90
25918;DHT22;13899;51.174;4.456;2023-06-10T15:41:31;36.70;36.60
25918;DHT22;13899;51.174;4.456;2023-06-10T15:43:57;36.50;36.20